createdAt,value
2024-01-26T00:02:38.267Z,0.70
2024-01-26T00:06:00.975Z,1.20
2024-01-26T00:09:29.796Z,1.00
2024-01-26T00:12:52.912Z,0.70
2024-01-26T00:16:16.036Z,0.80
2024-01-26T00:19:43.473Z,1.17
2024-01-26T00:23:06.013Z,1.37
2024-01-26T00:26:28.942Z,1.02
2024-01-26T00:29:51.931Z,1.02
2024-01-26T00:33:14.859Z,0.80
2024-01-26T00:36:38.989Z,0.88
2024-01-26T00:40:02.075Z,1.52
2024-01-26T00:43:24.698Z,1.40
2024-01-26T00:46:57.632Z,0.93
2024-01-26T00:50:26.441Z,0.85
2024-01-26T00:53:50.613Z,1.23
2024-01-26T00:57:15.713Z,1.30
2024-01-26T01:04:01.378Z,1.17
2024-01-26T01:07:25.789Z,0.85
2024-01-26T01:10:49.807Z,1.10
2024-01-26T01:14:12.516Z,1.15
2024-01-26T01:17:35.215Z,1.10
2024-01-26T01:20:58.345Z,0.75
2024-01-26T01:24:21.028Z,0.90
2024-01-26T01:27:44.933Z,0.73
2024-01-26T01:31:07.651Z,0.60
2024-01-26T01:34:30.245Z,0.90
2024-01-26T01:37:52.659Z,0.80
2024-01-26T01:41:15.336Z,1.05
2024-01-26T01:44:39.306Z,0.85
2024-01-26T01:48:02.612Z,0.52
2024-01-26T01:51:25.144Z,0.63
2024-01-26T01:54:47.956Z,1.05
2024-01-26T01:58:10.676Z,0.90
2024-01-26T02:01:34.911Z,0.70
2024-01-26T02:04:58.151Z,1.23
2024-01-26T02:08:23.566Z,0.80
2024-01-26T02:11:46.343Z,1.25
2024-01-26T02:15:10.664Z,0.65
2024-01-26T02:18:35.505Z,1.10
2024-01-26T02:21:58.083Z,0.73
2024-01-26T02:25:22.111Z,1.17
2024-01-26T02:28:44.656Z,1.20
2024-01-26T02:32:12.931Z,1.37
2024-01-26T02:35:35.591Z,1.50
2024-01-26T02:38:58.168Z,0.82
2024-01-26T02:42:22.378Z,1.05
2024-01-26T02:45:47.742Z,0.73
2024-01-26T02:49:10.659Z,0.68
2024-01-26T02:52:34.321Z,0.95
2024-01-26T02:55:56.985Z,0.68
2024-01-26T02:59:23.398Z,0.90
2024-01-26T03:02:46.518Z,0.55
2024-01-26T03:06:13.303Z,1.00
2024-01-26T03:09:38.316Z,0.32
2024-01-26T03:13:02.246Z,0.90
2024-01-26T03:16:25.856Z,0.80
2024-01-26T03:19:48.544Z,0.82
2024-01-26T03:23:11.051Z,1.55
2024-01-26T03:26:33.561Z,1.43
2024-01-26T03:29:58.696Z,1.02
2024-01-26T03:33:28.424Z,1.10
2024-01-26T03:36:51.331Z,1.27
2024-01-26T03:40:14.930Z,1.00
2024-01-26T03:43:37.613Z,0.75
2024-01-26T03:47:02.694Z,0.77
2024-01-26T03:50:26.521Z,0.62
2024-01-26T03:53:49.513Z,0.80
2024-01-26T03:57:12.156Z,0.77
2024-01-26T04:00:36.937Z,0.73
2024-01-26T04:03:59.775Z,0.60
2024-01-26T04:07:25.079Z,0.80
2024-01-26T04:10:49.921Z,1.05
2024-01-26T04:14:14.169Z,0.95
2024-01-26T04:17:36.878Z,0.95
2024-01-26T04:20:59.300Z,0.87
2024-01-26T04:24:23.634Z,1.05
2024-01-26T04:27:46.234Z,0.95
2024-01-26T04:31:12.148Z,1.10
2024-01-26T04:34:35.021Z,1.37
2024-01-26T04:38:00.941Z,0.98
2024-01-26T04:41:27.987Z,1.12
2024-01-26T04:44:50.938Z,0.47
2024-01-26T04:48:13.525Z,1.10
2024-01-26T04:51:39.145Z,1.05
2024-01-26T04:55:01.993Z,0.93
2024-01-26T04:58:26.682Z,2.33
2024-01-26T05:01:49.141Z,1.10
2024-01-26T05:05:15.596Z,0.90
2024-01-26T05:08:39.576Z,0.90
2024-01-26T05:12:03.276Z,1.00
2024-01-26T05:15:33.557Z,0.80
2024-01-26T05:18:56.791Z,1.00
2024-01-26T05:22:20.018Z,0.68
2024-01-26T05:25:43.219Z,0.98
2024-01-26T05:29:08.404Z,1.50
2024-01-26T05:32:34.014Z,1.33
2024-01-26T05:35:56.662Z,1.00
2024-01-26T05:39:22.018Z,0.88
2024-01-26T05:42:44.792Z,0.77
2024-01-26T05:46:11.841Z,1.02
2024-01-26T05:49:36.324Z,1.27
2024-01-26T05:52:59.554Z,1.90
2024-01-26T05:56:23.157Z,1.30
2024-01-26T05:59:45.967Z,1.10
2024-01-26T06:03:15.504Z,0.90
2024-01-26T06:06:40.177Z,1.20
2024-01-26T06:10:02.474Z,0.95
2024-01-26T06:13:25.858Z,1.27
2024-01-26T06:16:49.764Z,1.00
2024-01-26T06:20:17.131Z,1.35
2024-01-26T06:23:41.302Z,1.27
2024-01-26T06:27:06.376Z,1.43
2024-01-26T06:30:29.192Z,1.00
2024-01-26T06:33:52.696Z,0.80
2024-01-26T06:37:18.467Z,0.80
2024-01-26T06:40:46.074Z,1.30
2024-01-26T06:44:09.295Z,0.88
2024-01-26T06:47:31.922Z,1.10
2024-01-26T06:50:54.378Z,0.80
2024-01-26T06:54:17.249Z,1.30
2024-01-26T06:57:41.103Z,1.55
2024-01-26T07:01:08.771Z,0.88
2024-01-26T07:04:31.579Z,0.98
2024-01-26T07:07:55.844Z,2.03
2024-01-26T07:11:19.867Z,0.88
2024-01-26T07:14:44.119Z,1.33
2024-01-26T07:18:10.610Z,1.20
2024-01-26T07:21:34.200Z,1.60
2024-01-26T07:24:56.832Z,1.33
2024-01-26T07:28:21.003Z,1.20
2024-01-26T07:31:46.277Z,1.00
2024-01-26T07:35:11.500Z,1.63
2024-01-26T07:38:34.139Z,2.37
2024-01-26T07:41:56.757Z,2.45
2024-01-26T07:45:19.374Z,2.50
2024-01-26T07:48:43.697Z,2.77
2024-01-26T07:52:07.034Z,1.52
2024-01-26T07:55:29.988Z,1.92
2024-01-26T07:58:52.775Z,1.58
2024-01-26T08:02:15.942Z,1.90
2024-01-26T08:05:42.720Z,2.45
2024-01-26T08:09:05.750Z,2.20
2024-01-26T08:12:38.582Z,2.05
2024-01-26T08:16:07.833Z,2.22
2024-01-26T08:19:30.952Z,1.47
2024-01-26T08:22:55.217Z,1.73
2024-01-26T08:26:19.545Z,1.80
2024-01-26T08:29:42.423Z,1.65
2024-01-26T08:33:05.801Z,2.30
2024-01-26T08:36:28.463Z,1.85
2024-01-26T08:39:52.983Z,2.25
2024-01-26T08:43:15.489Z,1.83
2024-01-26T08:46:38.080Z,1.97
2024-01-26T08:50:01.062Z,1.40
2024-01-26T08:53:24.285Z,1.70
2024-01-26T08:56:50.890Z,1.60
2024-01-26T09:00:16.352Z,1.98
2024-01-26T09:03:39.034Z,1.75
2024-01-26T09:07:08.002Z,2.22
2024-01-26T09:10:35.916Z,2.35
2024-01-26T09:13:59.948Z,1.70
2024-01-26T09:17:22.430Z,1.90
2024-01-26T09:20:50.124Z,1.48
2024-01-26T09:24:13.357Z,1.75
2024-01-26T09:27:36.165Z,2.03
2024-01-26T09:31:00.320Z,1.00
2024-01-26T09:34:23.592Z,2.25
2024-01-26T09:37:46.484Z,1.73
2024-01-26T09:41:12.007Z,1.80
2024-01-26T09:44:39.945Z,0.80
2024-01-26T09:48:06.327Z,1.45
2024-01-26T09:51:29.266Z,1.62
2024-01-26T09:54:52.655Z,1.55
2024-01-26T09:58:16.322Z,1.60
2024-01-26T10:01:40.804Z,1.42
2024-01-26T10:05:06.381Z,1.60
2024-01-26T10:08:38.823Z,1.80
2024-01-26T10:12:01.681Z,1.60
2024-01-26T10:15:24.208Z,1.70
2024-01-26T10:18:48.241Z,2.30
2024-01-26T10:22:12.686Z,1.77
2024-01-26T10:25:38.247Z,1.40
2024-01-26T10:29:01.206Z,1.02
2024-01-26T10:32:25.386Z,1.33
2024-01-26T10:35:48.602Z,1.60
2024-01-26T10:39:15.500Z,1.98
2024-01-26T10:42:38.178Z,2.37
2024-01-26T10:46:03.121Z,2.08
2024-01-26T10:49:26.482Z,1.27
2024-01-26T10:52:52.473Z,2.17
2024-01-26T10:56:24.155Z,2.05
2024-01-26T10:59:47.071Z,2.22
2024-01-26T11:03:09.858Z,1.73
2024-01-26T11:06:34.718Z,1.85
2024-01-26T11:10:01.434Z,2.47
2024-01-26T11:13:25.985Z,2.65
2024-01-26T11:16:50.713Z,4.03
2024-01-26T11:20:16.265Z,2.75
2024-01-26T11:23:41.432Z,3.75
2024-01-26T11:27:04.794Z,1.45
2024-01-26T11:30:29.240Z,1.10
2024-01-26T11:33:53.984Z,1.27
2024-01-26T11:37:16.604Z,1.10
2024-01-26T11:40:42.329Z,1.40
2024-01-26T11:44:05.459Z,1.30
2024-01-26T11:47:39.374Z,1.62
2024-01-26T11:51:02.207Z,1.92
2024-01-26T11:54:26.160Z,1.23
2024-01-26T11:57:50.340Z,1.20
2024-01-26T12:01:15.544Z,1.12
2024-01-26T12:04:41.315Z,1.10
2024-01-26T12:08:06.325Z,0.93
2024-01-26T12:11:31.933Z,1.17
2024-01-26T12:14:54.661Z,0.82
2024-01-26T12:18:18.778Z,1.08
2024-01-26T12:21:42.927Z,1.27
2024-01-26T12:25:09.369Z,1.20
2024-01-26T12:28:41.354Z,0.80
2024-01-26T12:32:07.294Z,1.00
2024-01-26T12:35:30.129Z,1.25
2024-01-26T12:38:56.932Z,1.80
2024-01-26T12:42:19.328Z,1.53
2024-01-26T12:45:42.580Z,1.10
2024-01-26T12:49:05.515Z,1.60
2024-01-26T12:52:33.832Z,2.78
2024-01-26T12:55:57.726Z,1.57
2024-01-26T12:59:20.667Z,1.52
2024-01-26T13:02:43.656Z,1.70
2024-01-26T13:06:07.092Z,1.98
2024-01-26T13:09:29.600Z,1.50
2024-01-26T13:12:53.789Z,2.22
2024-01-26T13:16:18.289Z,1.50
2024-01-26T13:19:41.631Z,2.28
2024-01-26T13:23:04.308Z,1.53
2024-01-26T13:26:27.558Z,1.80
2024-01-26T13:29:51.627Z,1.70
2024-01-26T13:33:15.927Z,1.37
2024-01-26T13:36:38.684Z,1.27
2024-01-26T13:40:01.677Z,0.90
2024-01-26T13:43:24.389Z,0.85
2024-01-26T13:46:48.753Z,2.35
2024-01-26T13:50:12.143Z,1.90
2024-01-26T13:53:35.038Z,1.37
2024-01-26T13:57:01.544Z,1.10
2024-01-26T14:00:25.507Z,1.95
2024-01-26T14:03:50.531Z,1.20
2024-01-26T14:07:13.395Z,1.50
2024-01-26T14:10:40.474Z,2.28
2024-01-26T14:14:03.006Z,1.65
2024-01-26T14:17:25.775Z,1.75
2024-01-26T14:20:52.629Z,1.48
2024-01-26T14:24:16.440Z,1.67
2024-01-26T14:27:42.014Z,3.33
2024-01-26T14:31:07.782Z,3.60
2024-01-26T14:34:30.519Z,2.92
2024-01-26T14:37:57.241Z,1.50
2024-01-26T14:41:22.983Z,2.62
2024-01-26T14:44:46.157Z,1.00
2024-01-26T14:48:10.019Z,1.17
2024-01-26T14:51:36.879Z,1.20
2024-01-26T14:55:01.267Z,0.70
2024-01-26T14:58:24.144Z,1.08
2024-01-26T15:01:50.555Z,1.02
2024-01-26T15:05:13.550Z,1.33
2024-01-26T15:08:36.228Z,1.62
2024-01-26T15:12:05.500Z,1.85
2024-01-26T15:15:28.345Z,2.15
2024-01-26T15:18:52.935Z,1.25
2024-01-26T15:22:17.923Z,1.50
2024-01-26T15:25:40.937Z,1.00
2024-01-26T15:29:04.850Z,1.00
2024-01-26T15:32:31.440Z,1.40
2024-01-26T15:35:53.998Z,2.33
2024-01-26T15:39:16.773Z,3.42
2024-01-26T15:42:39.496Z,5.22
2024-01-26T15:46:04.063Z,8.13
2024-01-26T15:49:26.899Z,6.85
2024-01-26T15:52:49.730Z,5.55
2024-01-26T15:56:13.459Z,5.18
2024-01-26T15:59:36.224Z,3.78
2024-01-26T16:03:00.125Z,4.23
2024-01-26T16:06:23.258Z,6.12
2024-01-26T16:09:46.058Z,6.97
2024-01-26T16:13:08.757Z,11.32
2024-01-26T16:16:32.796Z,10.73
2024-01-26T16:19:59.823Z,11.45
2024-01-26T16:23:22.586Z,7.75
2024-01-26T16:26:45.383Z,6.22
2024-01-26T16:30:09.871Z,4.63
2024-01-26T16:33:32.979Z,5.85
2024-01-26T16:36:56.855Z,5.75
2024-01-26T16:40:21.868Z,4.95
2024-01-26T16:43:45.678Z,4.00
2024-01-26T16:47:11.137Z,4.18
2024-01-26T16:50:33.486Z,4.90
2024-01-26T16:54:01.569Z,6.83
2024-01-26T16:57:27.201Z,4.30
2024-01-26T17:00:50.269Z,5.60
2024-01-26T17:04:13.188Z,6.57
2024-01-26T17:07:36.325Z,7.97
2024-01-26T17:11:00.037Z,6.78
2024-01-26T17:14:32.562Z,7.75
2024-01-26T17:17:54.851Z,8.10
2024-01-26T17:21:19.582Z,6.93
2024-01-26T17:24:42.576Z,7.28
2024-01-26T17:28:07.118Z,6.35
2024-01-26T17:31:38.198Z,3.30
2024-01-26T17:35:01.158Z,5.13
2024-01-26T17:38:25.817Z,4.80
2024-01-26T17:41:49.318Z,8.38
2024-01-26T17:45:13.409Z,9.13
2024-01-26T17:48:36.521Z,6.47
2024-01-26T17:51:59.049Z,6.07
2024-01-26T17:55:21.669Z,7.28
2024-01-26T17:58:46.998Z,6.82
2024-01-26T18:02:11.127Z,6.00
2024-01-26T18:05:36.642Z,5.00
2024-01-26T18:08:59.487Z,6.10
2024-01-26T18:12:22.739Z,5.78
2024-01-26T18:15:45.715Z,5.87
2024-01-26T18:19:10.377Z,4.07
2024-01-26T18:22:35.300Z,4.55
2024-01-26T18:26:01.155Z,3.67
2024-01-26T18:29:23.675Z,3.30
2024-01-26T18:32:46.233Z,3.45
2024-01-26T18:36:13.537Z,3.20
2024-01-26T18:39:36.397Z,3.50
2024-01-26T18:42:58.831Z,4.87
2024-01-26T18:46:22.131Z,4.50
2024-01-26T18:49:45.255Z,4.37
2024-01-26T18:53:13.966Z,4.62
2024-01-26T18:56:40.121Z,6.57
2024-01-26T19:00:05.895Z,6.55
2024-01-26T19:03:29.603Z,7.70
2024-01-26T19:06:54.440Z,7.80
2024-01-26T19:10:20.210Z,7.07
2024-01-26T19:13:46.532Z,6.47
2024-01-26T19:17:11.578Z,7.05
2024-01-26T19:20:35.379Z,6.03
2024-01-26T19:23:58.810Z,6.78
2024-01-26T19:27:23.670Z,12.52
2024-01-26T19:30:46.338Z,14.35
2024-01-26T19:34:12.743Z,11.00
2024-01-26T19:37:38.107Z,9.93
2024-01-26T19:41:03.722Z,8.38
2024-01-26T19:44:30.081Z,10.70
2024-01-26T19:47:54.012Z,11.95
2024-01-26T19:51:16.606Z,11.85
2024-01-26T19:54:42.691Z,12.07
2024-01-26T19:58:09.793Z,10.73
2024-01-26T20:01:34.144Z,14.38
2024-01-26T20:04:57.653Z,12.60
2024-01-26T20:08:20.205Z,14.13
2024-01-26T20:11:43.754Z,11.52
2024-01-26T20:15:07.490Z,10.02
2024-01-26T20:18:31.744Z,7.95
2024-01-26T20:21:54.949Z,9.20
2024-01-26T20:25:18.404Z,6.37
2024-01-26T20:28:42.319Z,7.30
2024-01-26T20:32:08.366Z,7.37
2024-01-26T20:35:37.071Z,5.72
2024-01-26T20:39:00.755Z,6.97
2024-01-26T20:42:26.838Z,6.43
2024-01-26T20:45:51.192Z,6.47
2024-01-26T20:49:15.505Z,6.22
2024-01-26T20:52:41.019Z,5.45
2024-01-26T20:56:14.427Z,5.90
2024-01-26T20:59:38.498Z,6.00
2024-01-26T21:03:01.751Z,4.85
2024-01-26T21:06:24.959Z,7.75
2024-01-26T21:09:49.388Z,6.90
2024-01-26T21:13:12.725Z,5.85
2024-01-26T21:16:35.649Z,4.97
2024-01-26T21:20:01.502Z,5.15
2024-01-26T21:23:24.363Z,4.37
2024-01-26T21:26:54.477Z,8.80
2024-01-26T21:30:17.624Z,6.07
2024-01-26T21:33:40.726Z,7.85
2024-01-26T21:37:03.800Z,4.12
2024-01-26T21:40:27.513Z,7.68
2024-01-26T21:43:57.747Z,6.80
2024-01-26T21:47:21.018Z,6.00
2024-01-26T21:50:46.255Z,6.22
2024-01-26T21:54:09.364Z,6.12
2024-01-26T21:57:32.134Z,5.87
2024-01-26T22:00:56.794Z,4.87
2024-01-26T22:04:25.315Z,6.18
2024-01-26T22:07:47.852Z,6.00
2024-01-26T22:11:12.376Z,6.33
2024-01-26T22:14:37.802Z,6.22
2024-01-26T22:18:02.177Z,7.20
2024-01-26T22:21:25.311Z,6.57
2024-01-26T22:24:48.116Z,8.07
2024-01-26T22:28:13.535Z,7.32
2024-01-26T22:31:36.252Z,5.72
2024-01-26T22:35:00.300Z,6.65
2024-01-26T22:38:23.184Z,7.10
2024-01-26T22:41:46.064Z,7.22
2024-01-26T22:45:11.160Z,6.95
2024-01-26T22:48:36.588Z,7.55
2024-01-26T22:52:03.054Z,6.23
2024-01-26T22:55:25.814Z,6.22
2024-01-26T22:58:49.126Z,7.25
2024-01-26T23:02:11.857Z,6.75
2024-01-26T23:05:37.594Z,7.35
2024-01-26T23:09:01.483Z,8.45
2024-01-26T23:12:24.217Z,7.28
2024-01-26T23:15:46.841Z,7.90
2024-01-26T23:19:10.025Z,7.27
2024-01-26T23:22:38.464Z,7.45
2024-01-26T23:26:02.703Z,6.53
2024-01-26T23:29:32.295Z,8.18
2024-01-26T23:33:07.028Z,6.33
2024-01-26T23:36:30.500Z,8.18
2024-01-26T23:39:53.699Z,5.75
2024-01-26T23:43:17.734Z,9.27
2024-01-26T23:46:42.952Z,6.97
2024-01-26T23:50:08.916Z,6.95
2024-01-26T23:53:31.661Z,5.10
2024-01-26T23:56:54.355Z,1.92
